createdAt,value
2019-01-29T00:00:30.399Z,75.82
2019-01-29T00:03:02.062Z,75.82
2019-01-29T00:05:33.774Z,75.73
2019-01-29T00:08:05.345Z,75.71
2019-01-29T00:10:37.083Z,76.04
2019-01-29T00:13:08.730Z,76.19
2019-01-29T00:15:40.381Z,76.07
2019-01-29T00:18:12.047Z,76.12
2019-01-29T00:20:43.766Z,75.99
2019-01-29T00:23:15.350Z,75.66
2019-01-29T00:25:47.014Z,75.80
2019-01-29T00:28:18.827Z,76.00
2019-01-29T00:30:50.512Z,76.01
2019-01-29T00:33:22.209Z,75.73
2019-01-29T00:35:53.792Z,75.43
2019-01-29T00:38:25.440Z,75.33
2019-01-29T00:40:57.032Z,75.59
2019-01-29T00:43:28.788Z,75.46
2019-01-29T00:46:00.373Z,75.31
2019-01-29T00:48:31.939Z,75.51
2019-01-29T00:51:03.646Z,75.33
2019-01-29T00:53:35.308Z,75.14
2019-01-29T00:56:06.890Z,75.09
2019-01-29T00:58:38.469Z,75.28
2019-01-29T01:01:10.063Z,75.34
2019-01-29T01:03:41.694Z,75.27
2019-01-29T01:06:13.285Z,75.14
2019-01-29T01:08:44.855Z,75.18
2019-01-29T01:11:16.517Z,75.12
2019-01-29T01:13:48.160Z,75.06
2019-01-29T01:16:20.146Z,75.28
2019-01-29T01:18:52.201Z,75.40
2019-01-29T01:21:23.782Z,75.30
2019-01-29T01:23:55.359Z,75.06
2019-01-29T01:26:27.016Z,74.89
2019-01-29T01:28:58.596Z,75.02
2019-01-29T01:31:30.187Z,74.93
2019-01-29T01:34:01.774Z,74.81
2019-01-29T01:36:33.454Z,74.68
2019-01-29T01:39:08.262Z,74.97
2019-01-29T01:41:39.860Z,74.98
2019-01-29T01:44:11.428Z,75.11
2019-01-29T01:46:43.022Z,74.85
2019-01-29T01:49:14.666Z,75.05
2019-01-29T01:51:46.293Z,75.27
2019-01-29T01:54:21.151Z,75.53
2019-01-29T01:56:53.117Z,75.52
2019-01-29T01:59:25.042Z,75.64
2019-01-29T02:01:56.622Z,75.48
2019-01-29T02:04:28.256Z,76.07
2019-01-29T02:06:59.922Z,76.06
2019-01-29T02:09:31.551Z,76.14
2019-01-29T02:12:03.127Z,75.83
2019-01-29T02:14:34.699Z,75.98
2019-01-29T02:17:06.368Z,75.71
2019-01-29T02:19:38.002Z,76.38
2019-01-29T02:22:09.599Z,76.20
2019-01-29T02:24:41.244Z,76.93
2019-01-29T02:27:12.903Z,76.53
2019-01-29T02:29:44.846Z,77.74
2019-01-29T02:32:17.695Z,79.66
2019-01-29T02:34:49.324Z,80.81
2019-01-29T02:37:21.295Z,81.59
2019-01-29T02:39:53.101Z,81.99
2019-01-29T02:42:25.057Z,83.21
2019-01-29T02:44:56.687Z,83.82
2019-01-29T02:47:29.319Z,84.65
2019-01-29T02:50:00.934Z,84.64
2019-01-29T02:52:32.615Z,84.83
2019-01-29T02:55:04.193Z,84.06
2019-01-29T02:57:35.841Z,83.98
2019-01-29T03:00:10.700Z,85.04
2019-01-29T03:02:42.407Z,84.84
2019-01-29T03:05:14.174Z,83.96
2019-01-29T03:07:45.830Z,84.33
2019-01-29T03:10:19.432Z,83.98
2019-01-29T03:12:51.214Z,84.33
2019-01-29T03:15:25.758Z,84.42
2019-01-29T03:17:57.490Z,83.94
2019-01-29T03:20:29.042Z,84.84
2019-01-29T03:23:00.670Z,84.58
2019-01-29T03:25:32.300Z,84.54
2019-01-29T03:28:04.113Z,84.56
2019-01-29T03:30:35.755Z,84.29
2019-01-29T03:33:07.332Z,84.46
2019-01-29T03:35:38.967Z,84.61
2019-01-29T03:38:10.536Z,84.30
2019-01-29T03:40:42.122Z,84.47
2019-01-29T03:43:13.707Z,84.27
2019-01-29T03:45:45.331Z,84.36
2019-01-29T03:48:16.919Z,84.72
2019-01-29T03:50:48.854Z,84.58
2019-01-29T03:53:20.505Z,84.65
2019-01-29T03:55:52.218Z,84.74
2019-01-29T03:58:23.960Z,84.43
2019-01-29T04:00:55.504Z,84.79
2019-01-29T04:03:27.149Z,84.68
2019-01-29T04:05:58.775Z,84.52
2019-01-29T04:08:30.430Z,84.60
2019-01-29T04:11:02.056Z,84.72
2019-01-29T04:13:33.687Z,84.40
2019-01-29T04:16:05.240Z,84.52
2019-01-29T04:18:36.883Z,84.75
2019-01-29T04:21:08.498Z,84.63
2019-01-29T04:23:47.447Z,84.71
2019-01-29T04:26:13.360Z,84.65
2019-01-29T04:28:44.924Z,84.61
2019-01-29T04:31:16.482Z,84.68
2019-01-29T04:33:48.171Z,84.77
2019-01-29T04:36:20.070Z,84.89
2019-01-29T04:38:52.011Z,84.78
2019-01-29T04:41:23.557Z,85.10
2019-01-29T04:43:55.128Z,85.31
2019-01-29T04:46:26.697Z,85.40
2019-01-29T04:48:58.271Z,85.37
2019-01-29T04:51:29.839Z,85.52
2019-01-29T04:54:01.518Z,85.37
2019-01-29T04:56:33.136Z,85.28
2019-01-29T04:59:04.788Z,85.14
2019-01-29T05:01:36.422Z,85.45
2019-01-29T05:04:08.011Z,85.44
2019-01-29T05:06:40.104Z,85.10
2019-01-29T05:09:11.754Z,84.97
2019-01-29T05:11:43.326Z,84.90
2019-01-29T05:14:14.893Z,85.00
2019-01-29T05:16:46.452Z,85.00
2019-01-29T05:19:18.325Z,85.06
2019-01-29T05:21:50.067Z,84.91
2019-01-29T05:24:22.018Z,84.70
2019-01-29T05:26:53.575Z,85.01
2019-01-29T05:29:25.226Z,84.70
2019-01-29T05:31:56.813Z,85.00
2019-01-29T05:34:28.456Z,84.87
2019-01-29T05:37:00.094Z,84.84
2019-01-29T05:39:31.680Z,84.85
2019-01-29T05:42:03.275Z,84.86
2019-01-29T05:44:34.843Z,85.24
2019-01-29T05:47:06.508Z,85.12
2019-01-29T05:49:38.086Z,85.34
2019-01-29T05:52:11.494Z,85.02
2019-01-29T05:54:43.687Z,85.17
2019-01-29T05:57:15.252Z,85.70
2019-01-29T05:59:46.913Z,85.43
2019-01-29T06:02:18.836Z,85.62
2019-01-29T06:04:50.476Z,85.54
2019-01-29T06:07:22.232Z,85.82
2019-01-29T06:09:53.812Z,85.78
2019-01-29T06:12:25.765Z,86.21
2019-01-29T06:14:57.348Z,86.03
2019-01-29T06:17:28.953Z,86.15
2019-01-29T06:20:00.632Z,86.12
2019-01-29T06:22:32.261Z,86.10
2019-01-29T06:25:03.857Z,86.54
2019-01-29T06:27:35.843Z,86.35
2019-01-29T06:30:08.740Z,86.61
2019-01-29T06:32:40.326Z,86.62
2019-01-29T06:35:13.507Z,86.67
2019-01-29T06:37:45.210Z,86.48
2019-01-29T06:40:21.980Z,86.80
2019-01-29T06:42:53.607Z,86.62
2019-01-29T06:45:25.328Z,86.63
2019-01-29T06:47:56.880Z,86.54
2019-01-29T06:50:28.448Z,86.22
2019-01-29T06:53:00.099Z,86.40
2019-01-29T06:55:31.659Z,86.57
2019-01-29T06:58:03.224Z,86.42
2019-01-29T07:00:34.886Z,86.25
2019-01-29T07:03:06.461Z,86.30
2019-01-29T07:05:38.031Z,85.95
2019-01-29T07:08:09.684Z,85.67
2019-01-29T07:10:41.332Z,85.72
2019-01-29T07:13:12.962Z,85.64
2019-01-29T07:16:01.880Z,85.31
2019-01-29T07:18:55.368Z,84.91
2019-01-29T07:21:27.015Z,84.89
2019-01-29T07:23:58.655Z,84.71
2019-01-29T07:26:30.280Z,84.80
2019-01-29T07:29:01.960Z,84.89
2019-01-29T07:31:34.194Z,84.43
2019-01-29T07:34:06.140Z,84.56
2019-01-29T07:36:37.987Z,84.59
2019-01-29T07:39:13.662Z,84.51
2019-01-29T07:41:45.570Z,84.63
2019-01-29T07:44:17.569Z,84.58
2019-01-29T07:46:51.331Z,84.42
2019-01-29T07:49:23.631Z,84.22
2019-01-29T07:51:55.644Z,84.34
2019-01-29T07:54:33.204Z,84.01
2019-01-29T07:57:00.853Z,84.01
2019-01-29T07:59:33.316Z,84.26
2019-01-29T08:02:05.097Z,84.54
2019-01-29T08:04:36.824Z,84.44
2019-01-29T08:07:08.409Z,84.14
2019-01-29T08:09:40.080Z,84.66
2019-01-29T08:12:11.731Z,85.44
2019-01-29T08:14:43.284Z,84.84
2019-01-29T08:17:14.941Z,84.92
2019-01-29T08:19:46.556Z,85.76
2019-01-29T08:22:19.054Z,85.21
2019-01-29T08:24:51.950Z,85.27
2019-01-29T08:27:23.973Z,85.72
2019-01-29T08:29:56.612Z,84.43
2019-01-29T08:32:28.516Z,85.07
2019-01-29T08:35:00.374Z,84.46
2019-01-29T08:37:32.644Z,84.73
2019-01-29T08:40:04.756Z,85.04
2019-01-29T08:42:36.450Z,84.17
2019-01-29T08:45:08.838Z,84.36
2019-01-29T08:47:42.134Z,84.62
2019-01-29T08:50:16.825Z,83.95
2019-01-29T08:52:48.408Z,84.24
2019-01-29T08:55:25.718Z,84.37
2019-01-29T08:57:58.097Z,84.10
2019-01-29T09:00:30.296Z,82.63
2019-01-29T09:03:02.566Z,82.97
2019-01-29T09:05:34.365Z,83.38
2019-01-29T09:08:06.867Z,83.59
2019-01-29T09:10:38.982Z,84.17
2019-01-29T09:13:10.674Z,84.50
2019-01-29T09:15:42.355Z,83.82
2019-01-29T09:18:17.164Z,83.55
2019-01-29T09:20:51.057Z,84.13
2019-01-29T09:23:23.740Z,84.20
2019-01-29T09:25:55.557Z,83.83
2019-01-29T09:28:29.488Z,83.38
2019-01-29T09:31:01.199Z,84.04
2019-01-29T09:33:32.846Z,83.79
2019-01-29T09:36:04.641Z,83.75
2019-01-29T09:38:36.288Z,84.40
2019-01-29T09:41:07.923Z,83.56
2019-01-29T09:43:39.568Z,84.12
2019-01-29T09:46:11.197Z,83.93
2019-01-29T09:48:43.164Z,84.33
2019-01-29T09:51:14.794Z,84.18
2019-01-29T09:53:46.471Z,84.10
2019-01-29T09:56:18.532Z,85.07
2019-01-29T09:58:50.509Z,84.77
2019-01-29T10:01:22.436Z,83.99
2019-01-29T10:03:54.042Z,83.71
2019-01-29T10:06:25.671Z,83.81
2019-01-29T10:08:57.326Z,84.06
2019-01-29T10:11:28.893Z,82.49
2019-01-29T10:14:00.476Z,82.28
2019-01-29T10:16:32.042Z,82.70
2019-01-29T10:19:03.613Z,80.85
2019-01-29T10:21:35.251Z,80.86
2019-01-29T10:24:07.233Z,81.21
2019-01-29T10:26:38.887Z,80.40
2019-01-29T10:29:10.543Z,80.69
2019-01-29T10:31:42.188Z,78.75
2019-01-29T10:34:13.772Z,79.53
2019-01-29T10:36:45.392Z,79.37
2019-01-29T10:39:16.961Z,80.76
2019-01-29T10:41:48.594Z,79.59
2019-01-29T10:44:20.834Z,79.27
2019-01-29T10:46:52.463Z,81.28
2019-01-29T10:49:24.107Z,79.53
2019-01-29T10:51:55.733Z,79.98
2019-01-29T10:54:27.574Z,78.36
2019-01-29T10:56:59.205Z,75.73
2019-01-29T10:59:30.867Z,74.07
2019-01-29T11:02:02.411Z,73.20
2019-01-29T11:04:34.975Z,72.64
2019-01-29T11:07:06.701Z,71.90
2019-01-29T11:09:38.270Z,71.02
2019-01-29T11:12:09.839Z,70.76
2019-01-29T11:14:41.799Z,71.16
2019-01-29T11:17:13.416Z,72.72
2019-01-29T11:19:45.060Z,72.00
2019-01-29T11:22:16.680Z,73.25
2019-01-29T11:24:48.546Z,73.21
2019-01-29T11:27:20.405Z,73.43
2019-01-29T11:29:52.425Z,72.46
2019-01-29T11:32:24.137Z,72.24
2019-01-29T11:34:55.736Z,73.36
2019-01-29T11:37:27.504Z,73.50
2019-01-29T11:39:59.164Z,73.86
2019-01-29T11:42:31.792Z,73.67
2019-01-29T11:45:03.475Z,75.16
2019-01-29T11:47:35.103Z,74.55
2019-01-29T11:50:07.203Z,74.23
2019-01-29T11:52:38.841Z,73.52
2019-01-29T11:55:10.562Z,73.83
2019-01-29T11:57:42.273Z,74.34
2019-01-29T12:00:19.535Z,76.23
2019-01-29T12:02:51.445Z,76.86
2019-01-29T12:05:23.355Z,77.87
2019-01-29T12:07:55.259Z,76.94
2019-01-29T12:10:27.091Z,76.48
2019-01-29T12:12:58.717Z,75.73
2019-01-29T12:15:30.288Z,76.55
2019-01-29T12:18:01.928Z,74.35
2019-01-29T12:20:33.580Z,74.94
2019-01-29T12:23:05.264Z,74.51
2019-01-29T12:25:36.847Z,72.62
2019-01-29T12:28:09.485Z,73.01
2019-01-29T12:30:41.130Z,72.66
2019-01-29T12:33:12.766Z,73.17
2019-01-29T12:35:44.614Z,73.22
2019-01-29T12:38:16.251Z,71.97
2019-01-29T12:40:47.883Z,71.32
2019-01-29T12:43:19.582Z,70.56
2019-01-29T12:45:51.424Z,69.37
2019-01-29T12:48:23.289Z,68.50
2019-01-29T12:50:59.518Z,67.04
2019-01-29T12:53:38.858Z,67.39
2019-01-29T12:56:10.562Z,66.52
2019-01-29T12:58:42.181Z,66.29
2019-01-29T13:01:13.830Z,64.46
2019-01-29T13:03:45.502Z,66.48
2019-01-29T13:06:19.736Z,66.79
2019-01-29T13:08:58.455Z,67.35
2019-01-29T13:11:34.451Z,67.91
2019-01-29T13:14:08.223Z,65.54
2019-01-29T13:16:40.607Z,63.07
2019-01-29T13:19:12.359Z,62.13
2019-01-29T13:21:44.880Z,61.72
2019-01-29T13:24:17.891Z,63.52
2019-01-29T13:26:49.681Z,63.25
2019-01-29T13:29:21.570Z,63.62
2019-01-29T13:31:53.448Z,65.63
2019-01-29T13:34:25.496Z,64.88
2019-01-29T13:36:57.232Z,65.28
2019-01-29T13:39:28.898Z,65.41
2019-01-29T13:42:00.597Z,66.89
2019-01-29T13:44:32.230Z,63.37
2019-01-29T13:47:10.036Z,63.94
2019-01-29T13:49:41.688Z,65.20
2019-01-29T13:52:13.290Z,65.81
2019-01-29T13:54:46.179Z,65.57
2019-01-29T13:57:19.632Z,66.29
2019-01-29T13:59:51.238Z,62.88
2019-01-29T14:02:22.906Z,63.62
2019-01-29T14:04:55.928Z,63.55
2019-01-29T14:07:28.858Z,64.16
2019-01-29T14:10:02.451Z,63.91
2019-01-29T14:12:35.235Z,63.73
2019-01-29T14:15:08.112Z,63.75
2019-01-29T14:17:40.474Z,64.21
2019-01-29T14:20:15.043Z,63.94
2019-01-29T14:22:46.790Z,64.02
2019-01-29T14:25:18.851Z,64.84
2019-01-29T14:27:57.628Z,65.16
2019-01-29T14:30:31.719Z,64.80
2019-01-29T14:33:03.575Z,65.44
2019-01-29T14:35:35.571Z,64.39
2019-01-29T14:38:48.683Z,64.47
2019-01-29T14:41:21.789Z,64.40
2019-01-29T14:43:58.304Z,64.86
2019-01-29T14:46:29.978Z,65.46
2019-01-29T14:49:01.711Z,65.93
2019-01-29T14:51:34.367Z,66.99
2019-01-29T14:54:05.985Z,66.38
2019-01-29T14:56:37.642Z,66.95
2019-01-29T14:59:09.242Z,67.41
2019-01-29T15:01:40.810Z,67.82
2019-01-29T15:04:12.479Z,68.87
2019-01-29T15:06:44.203Z,68.40
2019-01-29T15:09:17.537Z,68.73
2019-01-29T15:11:49.814Z,69.45
2019-01-29T15:14:21.773Z,69.42
2019-01-29T15:17:01.933Z,69.85
2019-01-29T15:19:34.134Z,69.88
2019-01-29T15:22:05.712Z,70.89
2019-01-29T15:24:37.290Z,71.01
2019-01-29T15:27:08.936Z,70.49
2019-01-29T15:29:40.508Z,71.52
2019-01-29T15:32:12.062Z,71.93
2019-01-29T15:34:43.708Z,72.12
2019-01-29T15:37:15.366Z,72.25
2019-01-29T15:39:47.022Z,72.31
2019-01-29T15:42:18.782Z,73.07
2019-01-29T15:44:50.598Z,73.16
2019-01-29T15:47:22.559Z,73.38
2019-01-29T15:49:54.194Z,72.50
2019-01-29T15:52:25.846Z,72.51
2019-01-29T15:54:57.400Z,72.81
2019-01-29T15:57:29.030Z,72.67
2019-01-29T16:00:00.674Z,72.40
2019-01-29T16:02:32.296Z,71.73
2019-01-29T16:05:03.887Z,72.03
2019-01-29T16:07:36.508Z,71.87
2019-01-29T16:10:09.808Z,72.04
2019-01-29T16:12:41.470Z,72.12
2019-01-29T16:15:14.504Z,71.94
2019-01-29T16:17:46.074Z,72.12
2019-01-29T16:20:19.231Z,72.28
2019-01-29T16:22:50.849Z,72.47
2019-01-29T16:25:22.938Z,71.51
2019-01-29T16:27:54.568Z,71.72
2019-01-29T16:30:27.092Z,71.83
2019-01-29T16:32:58.744Z,71.55
2019-01-29T16:35:31.738Z,72.42
2019-01-29T16:38:03.390Z,71.72
2019-01-29T16:40:35.067Z,71.52
2019-01-29T16:43:07.708Z,71.50
2019-01-29T16:45:39.364Z,71.17
2019-01-29T16:48:11.026Z,71.27
2019-01-29T16:50:42.697Z,71.39
2019-01-29T16:53:14.350Z,72.30
2019-01-29T16:55:45.989Z,71.71
2019-01-29T16:58:26.268Z,72.52
2019-01-29T17:00:58.085Z,72.20
2019-01-29T17:03:30.568Z,72.19
2019-01-29T17:06:02.192Z,72.99
2019-01-29T17:08:33.840Z,73.78
2019-01-29T17:11:06.470Z,73.99
2019-01-29T17:13:38.096Z,74.62
2019-01-29T17:16:09.735Z,75.20
2019-01-29T17:18:41.378Z,75.51
2019-01-29T17:21:12.940Z,75.76
2019-01-29T17:23:44.990Z,76.21
2019-01-29T17:26:16.708Z,75.95
2019-01-29T17:28:48.373Z,76.09
2019-01-29T17:31:20.346Z,75.10
2019-01-29T17:33:52.283Z,75.45
2019-01-29T17:36:24.138Z,76.33
2019-01-29T17:38:56.061Z,76.67
2019-01-29T17:41:27.856Z,76.93
2019-01-29T17:44:01.415Z,77.24
2019-01-29T17:46:34.142Z,76.30
2019-01-29T17:49:05.827Z,76.60
2019-01-29T17:51:37.502Z,77.02
2019-01-29T17:54:10.732Z,77.35
2019-01-29T17:56:43.021Z,76.94
2019-01-29T17:59:14.694Z,76.61
2019-01-29T18:01:46.276Z,76.77
2019-01-29T18:04:18.840Z,76.48
2019-01-29T18:06:50.493Z,76.56
2019-01-29T18:09:22.534Z,76.61
2019-01-29T18:11:54.249Z,76.74
2019-01-29T18:14:26.097Z,76.13
2019-01-29T18:16:57.755Z,76.54
2019-01-29T18:19:29.395Z,76.14
2019-01-29T18:22:01.043Z,76.19
2019-01-29T18:24:32.677Z,76.26
2019-01-29T18:27:04.332Z,76.12
2019-01-29T18:29:35.918Z,76.01
2019-01-29T18:32:07.495Z,76.27
2019-01-29T18:34:39.135Z,76.28
2019-01-29T18:37:10.781Z,76.21
2019-01-29T18:39:42.434Z,76.30
2019-01-29T18:42:14.068Z,76.35
2019-01-29T18:44:45.655Z,76.58
2019-01-29T18:47:17.520Z,76.50
2019-01-29T18:49:49.250Z,76.14
2019-01-29T18:52:21.465Z,75.87
2019-01-29T18:54:57.027Z,75.77
2019-01-29T18:57:31.510Z,75.90
2019-01-29T19:00:04.230Z,75.94
2019-01-29T19:02:36.631Z,75.96
2019-01-29T19:05:10.733Z,76.19
2019-01-29T19:07:44.791Z,76.31
2019-01-29T19:10:17.897Z,75.56
2019-01-29T19:12:50.159Z,75.72
2019-01-29T19:15:23.415Z,75.71
2019-01-29T19:17:56.153Z,76.03
2019-01-29T19:20:33.770Z,76.27
2019-01-29T19:23:05.994Z,76.56
2019-01-29T19:25:38.131Z,76.44
2019-01-29T19:28:21.433Z,76.30
2019-01-29T19:30:47.621Z,76.19
2019-01-29T19:33:20.722Z,76.50
2019-01-29T19:35:52.790Z,76.16
2019-01-29T19:38:25.116Z,76.13
2019-01-29T19:40:59.750Z,75.90
2019-01-29T19:43:33.195Z,75.42
2019-01-29T19:46:05.373Z,75.11
2019-01-29T19:48:37.055Z,75.37
2019-01-29T19:51:10.026Z,75.32
2019-01-29T19:53:42.479Z,75.27
2019-01-29T19:56:14.594Z,75.27
2019-01-29T19:58:46.554Z,75.65
2019-01-29T20:01:19.511Z,76.23
2019-01-29T20:03:51.488Z,76.21
2019-01-29T20:06:23.710Z,76.46
2019-01-29T20:08:57.142Z,76.38
2019-01-29T20:11:30.253Z,76.60
2019-01-29T20:14:04.809Z,77.15
2019-01-29T20:16:40.788Z,77.08
2019-01-29T20:19:13.033Z,76.94
2019-01-29T20:21:45.166Z,77.25
2019-01-29T20:24:18.423Z,77.18
2019-01-29T20:26:51.052Z,77.25
2019-01-29T20:29:25.469Z,77.15
2019-01-29T20:31:57.442Z,77.04
2019-01-29T20:34:30.485Z,76.85
2019-01-29T20:37:05.425Z,76.39
2019-01-29T20:39:37.998Z,76.03
2019-01-29T20:42:10.764Z,75.84
2019-01-29T20:44:43.525Z,75.34
2019-01-29T20:47:17.643Z,75.36
2019-01-29T20:49:51.612Z,74.70
2019-01-29T20:52:23.909Z,74.53
2019-01-29T20:54:56.345Z,74.18
2019-01-29T20:57:49.158Z,74.88
2019-01-29T21:00:28.922Z,74.76
2019-01-29T21:03:01.329Z,74.55
2019-01-29T21:05:33.041Z,73.96
2019-01-29T21:08:06.079Z,74.28
2019-01-29T21:10:38.026Z,74.35
2019-01-29T21:13:10.889Z,74.84
2019-01-29T21:15:44.379Z,74.73
2019-01-29T21:18:16.096Z,74.84
2019-01-29T21:20:56.652Z,74.55
2019-01-29T21:23:21.314Z,74.59
2019-01-29T21:25:52.992Z,74.80
2019-01-29T21:28:24.836Z,75.08
2019-01-29T21:30:56.558Z,74.71
2019-01-29T21:33:28.322Z,74.54
2019-01-29T21:36:00.074Z,74.41
2019-01-29T21:38:31.757Z,74.79
2019-01-29T21:41:03.500Z,74.76
2019-01-29T21:43:35.468Z,74.97
2019-01-29T21:46:07.147Z,75.07
2019-01-29T21:48:38.851Z,75.01
2019-01-29T21:51:10.546Z,75.05
2019-01-29T21:53:42.264Z,75.05
2019-01-29T21:56:14.021Z,75.14
2019-01-29T21:58:45.702Z,75.16
2019-01-29T22:01:17.443Z,74.86
2019-01-29T22:03:49.127Z,74.90
2019-01-29T22:06:21.569Z,74.79
2019-01-29T22:08:53.167Z,75.07
2019-01-29T22:11:24.891Z,75.04
2019-01-29T22:13:56.644Z,75.36
2019-01-29T22:16:28.302Z,75.38
2019-01-29T22:18:59.978Z,75.62
2019-01-29T22:21:31.642Z,75.52
2019-01-29T22:24:03.300Z,75.63
2019-01-29T22:26:35.948Z,75.47
2019-01-29T22:29:07.987Z,75.37
2019-01-29T22:31:39.572Z,75.65
2019-01-29T22:34:11.227Z,75.77
2019-01-29T22:36:42.883Z,75.59
2019-01-29T22:39:14.550Z,75.64
2019-01-29T22:41:46.201Z,75.71
2019-01-29T22:44:17.867Z,75.72
2019-01-29T22:46:49.450Z,75.65
2019-01-29T22:49:21.571Z,75.25
2019-01-29T22:51:53.222Z,75.05
2019-01-29T22:54:24.783Z,75.11
2019-01-29T22:56:56.552Z,75.32
2019-01-29T22:59:33.454Z,75.41
2019-01-29T23:02:01.548Z,75.60
2019-01-29T23:04:43.211Z,75.83
2019-01-29T23:07:23.593Z,76.02
2019-01-29T23:09:55.614Z,75.84
2019-01-29T23:12:27.562Z,75.78
2019-01-29T23:14:59.387Z,75.79
2019-01-29T23:17:31.038Z,75.91
2019-01-29T23:20:02.690Z,75.61
2019-01-29T23:22:34.439Z,75.21
2019-01-29T23:25:06.644Z,75.02
2019-01-29T23:27:38.285Z,75.27
2019-01-29T23:30:13.445Z,75.35
2019-01-29T23:32:45.094Z,75.19
2019-01-29T23:35:16.718Z,75.66
2019-01-29T23:37:48.404Z,76.11
2019-01-29T23:40:21.504Z,76.35
2019-01-29T23:42:53.083Z,76.34
2019-01-29T23:45:24.730Z,76.50
2019-01-29T23:48:02.404Z,76.27
2019-01-29T23:50:34.137Z,76.36
2019-01-29T23:53:05.760Z,76.34
2019-01-29T23:55:37.403Z,75.83
2019-01-29T23:58:09.042Z,75.92
